sensor_id;sensor_type;location;lat;lon;timestamp;P1;durP1;ratioP1;P2;durP2;ratioP2
66298;SDS011;53098;47.658;8.578;2023-09-18T00:01:22;6.05;;;1.77;;
66298;SDS011;53098;47.658;8.578;2023-09-18T00:03:47;5.45;;;1.80;;
66298;SDS011;53098;47.658;8.578;2023-09-18T00:06:13;7.13;;;1.95;;
66298;SDS011;53098;47.658;8.578;2023-09-18T00:08:39;4.03;;;1.83;;
66298;SDS011;53098;47.658;8.578;2023-09-18T00:11:05;4.82;;;1.73;;
66298;SDS011;53098;47.658;8.578;2023-09-18T00:13:30;5.45;;;1.75;;
66298;SDS011;53098;47.658;8.578;2023-09-18T00:15:56;5.30;;;1.70;;
66298;SDS011;53098;47.658;8.578;2023-09-18T00:18:21;7.25;;;2.33;;
66298;SDS011;53098;47.658;8.578;2023-09-18T00:20:47;5.05;;;1.70;;
66298;SDS011;53098;47.658;8.578;2023-09-18T00:23:12;5.00;;;2.00;;
66298;SDS011;53098;47.658;8.578;2023-09-18T00:25:38;5.13;;;1.88;;
66298;SDS011;53098;47.658;8.578;2023-09-18T00:28:03;6.10;;;2.00;;
66298;SDS011;53098;47.658;8.578;2023-09-18T00:30:29;4.22;;;1.85;;
66298;SDS011;53098;47.658;8.578;2023-09-18T00:32:54;7.50;;;2.05;;
66298;SDS011;53098;47.658;8.578;2023-09-18T00:35:20;4.97;;;1.85;;
66298;SDS011;53098;47.658;8.578;2023-09-18T00:37:45;6.72;;;2.20;;
66298;SDS011;53098;47.658;8.578;2023-09-18T00:40:11;6.10;;;2.05;;
66298;SDS011;53098;47.658;8.578;2023-09-18T00:42:37;3.92;;;1.98;;
66298;SDS011;53098;47.658;8.578;2023-09-18T00:45:02;5.15;;;2.08;;
66298;SDS011;53098;47.658;8.578;2023-09-18T00:47:28;8.25;;;1.90;;
66298;SDS011;53098;47.658;8.578;2023-09-18T00:49:54;5.38;;;1.80;;
66298;SDS011;53098;47.658;8.578;2023-09-18T00:52:20;6.38;;;1.90;;
66298;SDS011;53098;47.658;8.578;2023-09-18T00:54:48;6.32;;;2.20;;
66298;SDS011;53098;47.658;8.578;2023-09-18T00:57:14;8.95;;;2.08;;
66298;SDS011;53098;47.658;8.578;2023-09-18T00:59:40;8.48;;;2.05;;
66298;SDS011;53098;47.658;8.578;2023-09-18T01:02:05;7.22;;;1.83;;
66298;SDS011;53098;47.658;8.578;2023-09-18T01:04:32;5.28;;;1.65;;
66298;SDS011;53098;47.658;8.578;2023-09-18T01:06:59;6.35;;;2.10;;
66298;SDS011;53098;47.658;8.578;2023-09-18T01:09:24;4.50;;;2.10;;
66298;SDS011;53098;47.658;8.578;2023-09-18T01:12:08;4.18;;;1.80;;
66298;SDS011;53098;47.658;8.578;2023-09-18T01:17:02;7.03;;;2.25;;
66298;SDS011;53098;47.658;8.578;2023-09-18T01:19:49;6.03;;;2.28;;
66298;SDS011;53098;47.658;8.578;2023-09-18T01:22:14;4.57;;;1.70;;
66298;SDS011;53098;47.658;8.578;2023-09-18T01:24:41;7.25;;;2.00;;
66298;SDS011;53098;47.658;8.578;2023-09-18T01:27:08;6.25;;;1.80;;
66298;SDS011;53098;47.658;8.578;2023-09-18T01:29:35;5.13;;;1.83;;
66298;SDS011;53098;47.658;8.578;2023-09-18T01:32:00;7.97;;;2.25;;
66298;SDS011;53098;47.658;8.578;2023-09-18T01:34:28;9.07;;;2.22;;
66298;SDS011;53098;47.658;8.578;2023-09-18T01:36:57;4.85;;;1.98;;
66298;SDS011;53098;47.658;8.578;2023-09-18T01:39:24;8.43;;;2.08;;
66298;SDS011;53098;47.658;8.578;2023-09-18T01:41:52;3.80;;;1.60;;
66298;SDS011;53098;47.658;8.578;2023-09-18T01:44:17;6.32;;;2.10;;
66298;SDS011;53098;47.658;8.578;2023-09-18T01:46:43;6.88;;;1.92;;
66298;SDS011;53098;47.658;8.578;2023-09-18T01:49:09;7.20;;;1.98;;
66298;SDS011;53098;47.658;8.578;2023-09-18T01:51:35;4.32;;;1.70;;
66298;SDS011;53098;47.658;8.578;2023-09-18T01:54:00;8.23;;;2.13;;
66298;SDS011;53098;47.658;8.578;2023-09-18T01:56:26;5.80;;;1.92;;
66298;SDS011;53098;47.658;8.578;2023-09-18T01:58:51;6.40;;;1.75;;
66298;SDS011;53098;47.658;8.578;2023-09-18T02:01:17;5.65;;;2.00;;
66298;SDS011;53098;47.658;8.578;2023-09-18T02:03:42;10.40;;;2.42;;
66298;SDS011;53098;47.658;8.578;2023-09-18T02:06:08;5.05;;;1.77;;
66298;SDS011;53098;47.658;8.578;2023-09-18T02:08:33;4.43;;;1.80;;
66298;SDS011;53098;47.658;8.578;2023-09-18T02:10:59;7.05;;;2.03;;
66298;SDS011;53098;47.658;8.578;2023-09-18T02:13:25;7.32;;;1.80;;
66298;SDS011;53098;47.658;8.578;2023-09-18T02:15:50;5.82;;;1.80;;
66298;SDS011;53098;47.658;8.578;2023-09-18T02:18:16;8.27;;;2.13;;
66298;SDS011;53098;47.658;8.578;2023-09-18T02:20:41;4.18;;;1.77;;
66298;SDS011;53098;47.658;8.578;2023-09-18T02:23:07;8.93;;;2.10;;
66298;SDS011;53098;47.658;8.578;2023-09-18T02:25:33;6.13;;;1.95;;
66298;SDS011;53098;47.658;8.578;2023-09-18T02:27:58;5.47;;;2.17;;
66298;SDS011;53098;47.658;8.578;2023-09-18T02:30:24;6.32;;;1.92;;
66298;SDS011;53098;47.658;8.578;2023-09-18T02:32:49;4.78;;;1.90;;
66298;SDS011;53098;47.658;8.578;2023-09-18T02:35:15;7.63;;;2.20;;
66298;SDS011;53098;47.658;8.578;2023-09-18T02:37:40;8.38;;;2.72;;
66298;SDS011;53098;47.658;8.578;2023-09-18T02:40:06;11.25;;;2.47;;
66298;SDS011;53098;47.658;8.578;2023-09-18T02:42:32;5.57;;;1.95;;
66298;SDS011;53098;47.658;8.578;2023-09-18T02:44:57;5.97;;;1.77;;
66298;SDS011;53098;47.658;8.578;2023-09-18T02:47:23;5.15;;;1.95;;
66298;SDS011;53098;47.658;8.578;2023-09-18T02:49:48;4.13;;;1.88;;
66298;SDS011;53098;47.658;8.578;2023-09-18T02:52:14;5.22;;;1.88;;
66298;SDS011;53098;47.658;8.578;2023-09-18T02:54:39;7.28;;;2.17;;
66298;SDS011;53098;47.658;8.578;2023-09-18T02:57:05;7.13;;;2.08;;
66298;SDS011;53098;47.658;8.578;2023-09-18T02:59:30;8.95;;;2.22;;
66298;SDS011;53098;47.658;8.578;2023-09-18T03:01:55;6.40;;;2.17;;
66298;SDS011;53098;47.658;8.578;2023-09-18T03:04:21;8.02;;;2.22;;
66298;SDS011;53098;47.658;8.578;2023-09-18T03:06:46;10.15;;;2.20;;
66298;SDS011;53098;47.658;8.578;2023-09-18T03:09:12;4.38;;;1.95;;
66298;SDS011;53098;47.658;8.578;2023-09-18T03:11:37;8.82;;;1.95;;
66298;SDS011;53098;47.658;8.578;2023-09-18T03:14:03;8.82;;;2.30;;
66298;SDS011;53098;47.658;8.578;2023-09-18T03:16:28;13.38;;;2.38;;
66298;SDS011;53098;47.658;8.578;2023-09-18T03:18:53;12.68;;;2.78;;
66298;SDS011;53098;47.658;8.578;2023-09-18T03:21:19;9.88;;;2.70;;
66298;SDS011;53098;47.658;8.578;2023-09-18T03:23:44;9.48;;;2.20;;
66298;SDS011;53098;47.658;8.578;2023-09-18T03:26:10;9.65;;;3.08;;
66298;SDS011;53098;47.658;8.578;2023-09-18T03:28:36;10.85;;;2.65;;
66298;SDS011;53098;47.658;8.578;2023-09-18T03:31:01;10.88;;;2.30;;
66298;SDS011;53098;47.658;8.578;2023-09-18T03:33:27;17.77;;;3.67;;
66298;SDS011;53098;47.658;8.578;2023-09-18T03:35:53;16.17;;;2.60;;
66298;SDS011;53098;47.658;8.578;2023-09-18T03:38:18;14.05;;;2.67;;
66298;SDS011;53098;47.658;8.578;2023-09-18T03:40:44;14.93;;;3.40;;
66298;SDS011;53098;47.658;8.578;2023-09-18T03:43:09;18.13;;;3.28;;
66298;SDS011;53098;47.658;8.578;2023-09-18T03:45:35;18.25;;;3.08;;
66298;SDS011;53098;47.658;8.578;2023-09-18T03:48:01;12.80;;;3.83;;
66298;SDS011;53098;47.658;8.578;2023-09-18T03:50:26;17.83;;;2.88;;
66298;SDS011;53098;47.658;8.578;2023-09-18T03:52:52;11.98;;;3.15;;
66298;SDS011;53098;47.658;8.578;2023-09-18T03:55:18;17.10;;;2.85;;
66298;SDS011;53098;47.658;8.578;2023-09-18T03:57:43;13.60;;;3.00;;
66298;SDS011;53098;47.658;8.578;2023-09-18T04:00:09;11.93;;;2.65;;
66298;SDS011;53098;47.658;8.578;2023-09-18T04:02:34;10.52;;;2.78;;
66298;SDS011;53098;47.658;8.578;2023-09-18T04:05:00;13.80;;;2.33;;
66298;SDS011;53098;47.658;8.578;2023-09-18T04:07:26;13.50;;;2.75;;
66298;SDS011;53098;47.658;8.578;2023-09-18T04:09:51;14.13;;;3.28;;
66298;SDS011;53098;47.658;8.578;2023-09-18T04:12:16;9.68;;;1.95;;
66298;SDS011;53098;47.658;8.578;2023-09-18T04:14:42;7.82;;;2.15;;
66298;SDS011;53098;47.658;8.578;2023-09-18T04:17:07;10.80;;;2.22;;
66298;SDS011;53098;47.658;8.578;2023-09-18T04:19:33;5.25;;;2.00;;
66298;SDS011;53098;47.658;8.578;2023-09-18T04:21:59;9.13;;;2.67;;
66298;SDS011;53098;47.658;8.578;2023-09-18T04:24:25;10.90;;;2.58;;
66298;SDS011;53098;47.658;8.578;2023-09-18T04:26:50;6.40;;;2.13;;
66298;SDS011;53098;47.658;8.578;2023-09-18T04:29:16;10.07;;;2.65;;
66298;SDS011;53098;47.658;8.578;2023-09-18T04:31:42;6.22;;;2.22;;
66298;SDS011;53098;47.658;8.578;2023-09-18T04:34:08;7.93;;;2.25;;
66298;SDS011;53098;47.658;8.578;2023-09-18T04:36:34;10.57;;;2.63;;
66298;SDS011;53098;47.658;8.578;2023-09-18T04:38:59;6.40;;;2.42;;
66298;SDS011;53098;47.658;8.578;2023-09-18T04:41:24;11.32;;;2.70;;
66298;SDS011;53098;47.658;8.578;2023-09-18T04:43:50;7.47;;;2.47;;
66298;SDS011;53098;47.658;8.578;2023-09-18T04:46:16;9.02;;;2.58;;
66298;SDS011;53098;47.658;8.578;2023-09-18T04:48:41;13.93;;;2.60;;
66298;SDS011;53098;47.658;8.578;2023-09-18T04:51:07;13.02;;;2.55;;
66298;SDS011;53098;47.658;8.578;2023-09-18T04:53:32;9.48;;;2.85;;
66298;SDS011;53098;47.658;8.578;2023-09-18T04:55:58;7.25;;;2.00;;
66298;SDS011;53098;47.658;8.578;2023-09-18T04:58:24;8.85;;;2.40;;
66298;SDS011;53098;47.658;8.578;2023-09-18T05:00:59;12.82;;;2.33;;
66298;SDS011;53098;47.658;8.578;2023-09-18T05:03:25;13.98;;;2.67;;
66298;SDS011;53098;47.658;8.578;2023-09-18T05:05:51;11.32;;;2.20;;
66298;SDS011;53098;47.658;8.578;2023-09-18T05:08:16;12.98;;;2.65;;
66298;SDS011;53098;47.658;8.578;2023-09-18T05:10:41;7.07;;;2.08;;
66298;SDS011;53098;47.658;8.578;2023-09-18T05:13:07;10.23;;;2.38;;
66298;SDS011;53098;47.658;8.578;2023-09-18T05:15:32;9.23;;;1.92;;
66298;SDS011;53098;47.658;8.578;2023-09-18T05:17:58;7.28;;;2.33;;
66298;SDS011;53098;47.658;8.578;2023-09-18T05:20:25;8.23;;;1.90;;
66298;SDS011;53098;47.658;8.578;2023-09-18T05:22:51;6.57;;;2.10;;
66298;SDS011;53098;47.658;8.578;2023-09-18T05:25:17;9.35;;;2.38;;
66298;SDS011;53098;47.658;8.578;2023-09-18T05:27:43;7.30;;;1.65;;
66298;SDS011;53098;47.658;8.578;2023-09-18T05:30:08;12.30;;;2.63;;
66298;SDS011;53098;47.658;8.578;2023-09-18T05:32:38;10.85;;;1.80;;
66298;SDS011;53098;47.658;8.578;2023-09-18T05:35:03;4.82;;;1.70;;
66298;SDS011;53098;47.658;8.578;2023-09-18T05:37:29;8.43;;;1.80;;
66298;SDS011;53098;47.658;8.578;2023-09-18T05:39:55;6.57;;;2.10;;
66298;SDS011;53098;47.658;8.578;2023-09-18T05:42:23;9.07;;;1.75;;
66298;SDS011;53098;47.658;8.578;2023-09-18T05:44:48;6.43;;;1.83;;
66298;SDS011;53098;47.658;8.578;2023-09-18T05:47:14;11.40;;;1.92;;
66298;SDS011;53098;47.658;8.578;2023-09-18T05:49:39;9.15;;;1.80;;
66298;SDS011;53098;47.658;8.578;2023-09-18T05:52:04;9.02;;;1.45;;
66298;SDS011;53098;47.658;8.578;2023-09-18T05:54:30;8.45;;;1.70;;
66298;SDS011;53098;47.658;8.578;2023-09-18T05:56:55;10.00;;;2.13;;
66298;SDS011;53098;47.658;8.578;2023-09-18T05:59:21;6.80;;;1.92;;
66298;SDS011;53098;47.658;8.578;2023-09-18T06:01:46;7.22;;;1.55;;
66298;SDS011;53098;47.658;8.578;2023-09-18T06:04:12;10.40;;;2.03;;
66298;SDS011;53098;47.658;8.578;2023-09-18T06:06:37;8.10;;;1.90;;
66298;SDS011;53098;47.658;8.578;2023-09-18T06:09:03;8.27;;;1.58;;
66298;SDS011;53098;47.658;8.578;2023-09-18T06:11:28;7.47;;;1.65;;
66298;SDS011;53098;47.658;8.578;2023-09-18T06:13:56;10.90;;;1.92;;
66298;SDS011;53098;47.658;8.578;2023-09-18T06:16:22;7.00;;;2.03;;
66298;SDS011;53098;47.658;8.578;2023-09-18T06:18:47;12.77;;;2.15;;
66298;SDS011;53098;47.658;8.578;2023-09-18T06:21:13;9.00;;;2.40;;
66298;SDS011;53098;47.658;8.578;2023-09-18T06:23:39;9.25;;;2.20;;
66298;SDS011;53098;47.658;8.578;2023-09-18T06:26:04;8.48;;;2.20;;
66298;SDS011;53098;47.658;8.578;2023-09-18T06:28:30;7.30;;;1.70;;
66298;SDS011;53098;47.658;8.578;2023-09-18T06:30:55;8.77;;;1.63;;
66298;SDS011;53098;47.658;8.578;2023-09-18T06:33:21;7.85;;;1.90;;
66298;SDS011;53098;47.658;8.578;2023-09-18T06:35:47;8.75;;;1.70;;
66298;SDS011;53098;47.658;8.578;2023-09-18T06:38:13;6.63;;;1.77;;
66298;SDS011;53098;47.658;8.578;2023-09-18T06:40:38;9.45;;;2.15;;
66298;SDS011;53098;47.658;8.578;2023-09-18T06:43:04;6.30;;;1.63;;
66298;SDS011;53098;47.658;8.578;2023-09-18T06:45:30;4.07;;;1.27;;
66298;SDS011;53098;47.658;8.578;2023-09-18T06:47:55;5.80;;;1.35;;
66298;SDS011;53098;47.658;8.578;2023-09-18T06:50:20;8.95;;;1.83;;
66298;SDS011;53098;47.658;8.578;2023-09-18T06:52:46;7.35;;;1.80;;
66298;SDS011;53098;47.658;8.578;2023-09-18T06:55:12;9.38;;;1.88;;
66298;SDS011;53098;47.658;8.578;2023-09-18T06:57:37;7.45;;;1.73;;
66298;SDS011;53098;47.658;8.578;2023-09-18T07:00:03;5.93;;;1.80;;
66298;SDS011;53098;47.658;8.578;2023-09-18T07:02:30;4.78;;;1.23;;
66298;SDS011;53098;47.658;8.578;2023-09-18T07:04:56;4.93;;;1.52;;
66298;SDS011;53098;47.658;8.578;2023-09-18T07:07:22;6.10;;;1.60;;
66298;SDS011;53098;47.658;8.578;2023-09-18T07:09:48;5.75;;;1.20;;
66298;SDS011;53098;47.658;8.578;2023-09-18T07:12:23;8.77;;;1.63;;
66298;SDS011;53098;47.658;8.578;2023-09-18T07:14:51;8.80;;;1.55;;
66298;SDS011;53098;47.658;8.578;2023-09-18T07:17:24;7.10;;;1.45;;
66298;SDS011;53098;47.658;8.578;2023-09-18T07:19:55;7.82;;;1.55;;
66298;SDS011;53098;47.658;8.578;2023-09-18T07:22:25;8.25;;;1.85;;
66298;SDS011;53098;47.658;8.578;2023-09-18T07:24:51;9.45;;;1.83;;
66298;SDS011;53098;47.658;8.578;2023-09-18T07:27:27;8.68;;;1.45;;
66298;SDS011;53098;47.658;8.578;2023-09-18T07:29:55;9.10;;;1.83;;
66298;SDS011;53098;47.658;8.578;2023-09-18T07:32:21;8.68;;;1.60;;
66298;SDS011;53098;47.658;8.578;2023-09-18T07:34:49;7.70;;;1.40;;
66298;SDS011;53098;47.658;8.578;2023-09-18T07:37:17;8.95;;;1.75;;
66298;SDS011;53098;47.658;8.578;2023-09-18T07:39:43;11.65;;;1.42;;
66298;SDS011;53098;47.658;8.578;2023-09-18T07:42:09;9.52;;;2.30;;
66298;SDS011;53098;47.658;8.578;2023-09-18T07:44:34;5.90;;;1.52;;
66298;SDS011;53098;47.658;8.578;2023-09-18T07:47:00;8.93;;;1.58;;
66298;SDS011;53098;47.658;8.578;2023-09-18T07:49:25;8.15;;;1.73;;
66298;SDS011;53098;47.658;8.578;2023-09-18T07:51:51;8.93;;;1.60;;
66298;SDS011;53098;47.658;8.578;2023-09-18T07:54:16;10.35;;;2.00;;
66298;SDS011;53098;47.658;8.578;2023-09-18T07:56:42;9.75;;;1.75;;
66298;SDS011;53098;47.658;8.578;2023-09-18T07:59:07;8.07;;;1.75;;
66298;SDS011;53098;47.658;8.578;2023-09-18T08:01:33;10.77;;;1.90;;
66298;SDS011;53098;47.658;8.578;2023-09-18T08:03:58;8.77;;;2.17;;
66298;SDS011;53098;47.658;8.578;2023-09-18T08:06:24;4.70;;;1.10;;
66298;SDS011;53098;47.658;8.578;2023-09-18T08:08:49;10.35;;;1.98;;
66298;SDS011;53098;47.658;8.578;2023-09-18T08:11:14;8.70;;;1.75;;
66298;SDS011;53098;47.658;8.578;2023-09-18T08:13:40;10.90;;;2.10;;
66298;SDS011;53098;47.658;8.578;2023-09-18T08:16:06;8.20;;;1.90;;
66298;SDS011;53098;47.658;8.578;2023-09-18T08:18:32;7.22;;;1.48;;
66298;SDS011;53098;47.658;8.578;2023-09-18T08:20:57;7.05;;;1.60;;
66298;SDS011;53098;47.658;8.578;2023-09-18T08:23:26;7.00;;;1.45;;
66298;SDS011;53098;47.658;8.578;2023-09-18T08:25:51;7.00;;;1.70;;
66298;SDS011;53098;47.658;8.578;2023-09-18T08:28:17;5.93;;;1.40;;
66298;SDS011;53098;47.658;8.578;2023-09-18T08:30:42;7.03;;;2.20;;
66298;SDS011;53098;47.658;8.578;2023-09-18T08:33:08;6.18;;;1.42;;
66298;SDS011;53098;47.658;8.578;2023-09-18T08:35:33;4.95;;;1.40;;
66298;SDS011;53098;47.658;8.578;2023-09-18T08:37:59;7.50;;;1.65;;
66298;SDS011;53098;47.658;8.578;2023-09-18T08:40:25;5.45;;;1.60;;
66298;SDS011;53098;47.658;8.578;2023-09-18T08:42:51;7.47;;;1.70;;
66298;SDS011;53098;47.658;8.578;2023-09-18T08:45:23;6.35;;;1.35;;
66298;SDS011;53098;47.658;8.578;2023-09-18T08:47:55;8.05;;;1.70;;
66298;SDS011;53098;47.658;8.578;2023-09-18T08:50:21;6.72;;;1.58;;
66298;SDS011;53098;47.658;8.578;2023-09-18T08:52:47;8.23;;;1.50;;
66298;SDS011;53098;47.658;8.578;2023-09-18T08:55:13;7.03;;;1.60;;
66298;SDS011;53098;47.658;8.578;2023-09-18T08:57:39;8.73;;;1.45;;
66298;SDS011;53098;47.658;8.578;2023-09-18T09:00:07;4.93;;;1.20;;
66298;SDS011;53098;47.658;8.578;2023-09-18T09:02:33;6.75;;;1.65;;
66298;SDS011;53098;47.658;8.578;2023-09-18T09:04:59;8.40;;;1.55;;
66298;SDS011;53098;47.658;8.578;2023-09-18T09:07:25;9.45;;;1.23;;
66298;SDS011;53098;47.658;8.578;2023-09-18T09:09:51;9.07;;;1.50;;
66298;SDS011;53098;47.658;8.578;2023-09-18T09:12:45;5.13;;;1.80;;
66298;SDS011;53098;47.658;8.578;2023-09-18T09:15:49;6.80;;;1.25;;
66298;SDS011;53098;47.658;8.578;2023-09-18T09:18:15;6.70;;;1.90;;
66298;SDS011;53098;47.658;8.578;2023-09-18T09:20:40;8.27;;;1.63;;
66298;SDS011;53098;47.658;8.578;2023-09-18T09:23:08;8.93;;;2.10;;
66298;SDS011;53098;47.658;8.578;2023-09-18T09:25:35;4.97;;;1.50;;
66298;SDS011;53098;47.658;8.578;2023-09-18T09:28:01;8.85;;;1.83;;
66298;SDS011;53098;47.658;8.578;2023-09-18T09:30:28;6.68;;;1.42;;
66298;SDS011;53098;47.658;8.578;2023-09-18T09:32:54;4.88;;;1.60;;
66298;SDS011;53098;47.658;8.578;2023-09-18T09:35:28;7.75;;;1.70;;
66298;SDS011;53098;47.658;8.578;2023-09-18T09:37:57;8.52;;;2.00;;
66298;SDS011;53098;47.658;8.578;2023-09-18T09:40:28;9.70;;;2.00;;
66298;SDS011;53098;47.658;8.578;2023-09-18T09:42:55;9.38;;;1.95;;
66298;SDS011;53098;47.658;8.578;2023-09-18T09:45:21;8.00;;;2.13;;
66298;SDS011;53098;47.658;8.578;2023-09-18T09:47:47;5.55;;;2.00;;
66298;SDS011;53098;47.658;8.578;2023-09-18T09:50:14;5.93;;;1.80;;
66298;SDS011;53098;47.658;8.578;2023-09-18T09:52:41;7.43;;;2.08;;
66298;SDS011;53098;47.658;8.578;2023-09-18T09:55:24;11.77;;;2.17;;
66298;SDS011;53098;47.658;8.578;2023-09-18T09:57:55;11.48;;;2.38;;
66298;SDS011;53098;47.658;8.578;2023-09-18T10:00:21;12.50;;;2.63;;
66298;SDS011;53098;47.658;8.578;2023-09-18T10:02:47;6.85;;;2.00;;
66298;SDS011;53098;47.658;8.578;2023-09-18T10:05:14;7.45;;;2.10;;
66298;SDS011;53098;47.658;8.578;2023-09-18T10:07:41;6.63;;;2.30;;
66298;SDS011;53098;47.658;8.578;2023-09-18T10:10:07;7.05;;;2.28;;
66298;SDS011;53098;47.658;8.578;2023-09-18T10:12:33;8.02;;;1.83;;
66298;SDS011;53098;47.658;8.578;2023-09-18T10:14:58;8.30;;;2.13;;
66298;SDS011;53098;47.658;8.578;2023-09-18T10:17:25;7.20;;;2.15;;
66298;SDS011;53098;47.658;8.578;2023-09-18T10:19:54;11.75;;;1.77;;
66298;SDS011;53098;47.658;8.578;2023-09-18T10:22:31;6.53;;;2.08;;
66298;SDS011;53098;47.658;8.578;2023-09-18T10:25:04;9.88;;;2.88;;
66298;SDS011;53098;47.658;8.578;2023-09-18T10:27:40;9.27;;;2.25;;
66298;SDS011;53098;47.658;8.578;2023-09-18T10:30:07;7.32;;;1.92;;
66298;SDS011;53098;47.658;8.578;2023-09-18T10:32:35;6.28;;;1.52;;
66298;SDS011;53098;47.658;8.578;2023-09-18T10:35:01;6.07;;;1.75;;
66298;SDS011;53098;47.658;8.578;2023-09-18T10:37:27;5.93;;;1.60;;
66298;SDS011;53098;47.658;8.578;2023-09-18T10:39:55;6.07;;;1.42;;
66298;SDS011;53098;47.658;8.578;2023-09-18T10:42:21;4.45;;;1.40;;
66298;SDS011;53098;47.658;8.578;2023-09-18T10:44:48;6.40;;;1.80;;
66298;SDS011;53098;47.658;8.578;2023-09-18T10:47:14;5.07;;;1.52;;
66298;SDS011;53098;47.658;8.578;2023-09-18T10:49:39;5.65;;;1.40;;
66298;SDS011;53098;47.658;8.578;2023-09-18T10:52:05;4.60;;;1.17;;
66298;SDS011;53098;47.658;8.578;2023-09-18T10:54:36;4.47;;;1.35;;
66298;SDS011;53098;47.658;8.578;2023-09-18T10:57:04;4.40;;;1.00;;
66298;SDS011;53098;47.658;8.578;2023-09-18T10:59:30;6.22;;;1.10;;
66298;SDS011;53098;47.658;8.578;2023-09-18T11:01:55;6.07;;;1.67;;
66298;SDS011;53098;47.658;8.578;2023-09-18T11:04:21;5.65;;;1.33;;
66298;SDS011;53098;47.658;8.578;2023-09-18T11:09:20;4.22;;;1.40;;
66298;SDS011;53098;47.658;8.578;2023-09-18T11:17:39;3.13;;;1.08;;
66298;SDS011;53098;47.658;8.578;2023-09-18T11:22:34;7.22;;;1.27;;
66298;SDS011;53098;47.658;8.578;2023-09-18T11:27:55;5.10;;;1.15;;
66298;SDS011;53098;47.658;8.578;2023-09-18T11:30:20;6.97;;;1.40;;
66298;SDS011;53098;47.658;8.578;2023-09-18T11:32:46;4.38;;;1.25;;
66298;SDS011;53098;47.658;8.578;2023-09-18T11:35:12;4.38;;;1.17;;
66298;SDS011;53098;47.658;8.578;2023-09-18T11:37:38;4.20;;;1.10;;
66298;SDS011;53098;47.658;8.578;2023-09-18T11:40:04;2.97;;;1.05;;
66298;SDS011;53098;47.658;8.578;2023-09-18T11:42:30;4.38;;;0.90;;
66298;SDS011;53098;47.658;8.578;2023-09-18T11:44:55;2.78;;;1.13;;
66298;SDS011;53098;47.658;8.578;2023-09-18T11:47:24;7.15;;;1.40;;
66298;SDS011;53098;47.658;8.578;2023-09-18T11:49:51;6.03;;;1.23;;
66298;SDS011;53098;47.658;8.578;2023-09-18T11:52:19;4.28;;;1.13;;
66298;SDS011;53098;47.658;8.578;2023-09-18T11:54:47;4.22;;;1.02;;
66298;SDS011;53098;47.658;8.578;2023-09-18T11:57:13;5.03;;;1.38;;
66298;SDS011;53098;47.658;8.578;2023-09-18T11:59:41;5.57;;;1.50;;
66298;SDS011;53098;47.658;8.578;2023-09-18T12:02:07;3.50;;;1.25;;
66298;SDS011;53098;47.658;8.578;2023-09-18T12:04:34;3.50;;;1.10;;
66298;SDS011;53098;47.658;8.578;2023-09-18T12:07:00;10.90;;;5.38;;
66298;SDS011;53098;47.658;8.578;2023-09-18T12:09:29;5.07;;;1.85;;
66298;SDS011;53098;47.658;8.578;2023-09-18T12:11:56;8.20;;;2.80;;
66298;SDS011;53098;47.658;8.578;2023-09-18T12:14:25;10.23;;;2.90;;
66298;SDS011;53098;47.658;8.578;2023-09-18T12:16:51;7.15;;;2.67;;
66298;SDS011;53098;47.658;8.578;2023-09-18T12:19:17;8.50;;;3.28;;
66298;SDS011;53098;47.658;8.578;2023-09-18T12:21:42;3.30;;;1.30;;
66298;SDS011;53098;47.658;8.578;2023-09-18T12:24:22;2.63;;;1.00;;
66298;SDS011;53098;47.658;8.578;2023-09-18T12:29:14;2.47;;;1.05;;
66298;SDS011;53098;47.658;8.578;2023-09-18T12:31:40;4.70;;;1.10;;
66298;SDS011;53098;47.658;8.578;2023-09-18T12:34:13;2.67;;;1.05;;
66298;SDS011;53098;47.658;8.578;2023-09-18T12:36:47;2.90;;;1.00;;
66298;SDS011;53098;47.658;8.578;2023-09-18T12:39:13;5.57;;;1.20;;
66298;SDS011;53098;47.658;8.578;2023-09-18T12:41:39;3.97;;;1.17;;
66298;SDS011;53098;47.658;8.578;2023-09-18T12:44:05;3.38;;;1.05;;
66298;SDS011;53098;47.658;8.578;2023-09-18T12:46:32;4.57;;;1.17;;
66298;SDS011;53098;47.658;8.578;2023-09-18T12:48:59;4.45;;;1.35;;
66298;SDS011;53098;47.658;8.578;2023-09-18T12:51:57;4.28;;;1.08;;
66298;SDS011;53098;47.658;8.578;2023-09-18T12:54:43;8.20;;;1.33;;
66298;SDS011;53098;47.658;8.578;2023-09-18T12:57:10;5.75;;;0.90;;
66298;SDS011;53098;47.658;8.578;2023-09-18T12:59:36;4.50;;;1.20;;
66298;SDS011;53098;47.658;8.578;2023-09-18T13:02:05;3.95;;;1.40;;
66298;SDS011;53098;47.658;8.578;2023-09-18T13:04:34;3.45;;;1.10;;
66298;SDS011;53098;47.658;8.578;2023-09-18T13:07:11;2.40;;;0.98;;
66298;SDS011;53098;47.658;8.578;2023-09-18T13:09:38;2.85;;;1.00;;
66298;SDS011;53098;47.658;8.578;2023-09-18T13:12:09;3.28;;;0.93;;
66298;SDS011;53098;47.658;8.578;2023-09-18T13:17:36;2.92;;;1.20;;
66298;SDS011;53098;47.658;8.578;2023-09-18T13:22:53;3.05;;;1.20;;
66298;SDS011;53098;47.658;8.578;2023-09-18T13:25:21;2.65;;;1.05;;
66298;SDS011;53098;47.658;8.578;2023-09-18T13:28:08;3.00;;;1.00;;
66298;SDS011;53098;47.658;8.578;2023-09-18T13:30:39;3.28;;;0.80;;
66298;SDS011;53098;47.658;8.578;2023-09-18T13:36:15;4.10;;;1.00;;
66298;SDS011;53098;47.658;8.578;2023-09-18T13:38:41;3.10;;;1.02;;
66298;SDS011;53098;47.658;8.578;2023-09-18T13:41:13;4.85;;;1.23;;
66298;SDS011;53098;47.658;8.578;2023-09-18T13:43:40;4.30;;;1.40;;
66298;SDS011;53098;47.658;8.578;2023-09-18T13:46:06;2.38;;;0.90;;
66298;SDS011;53098;47.658;8.578;2023-09-18T13:48:31;3.22;;;1.50;;
66298;SDS011;53098;47.658;8.578;2023-09-18T13:50:57;4.30;;;1.25;;
66298;SDS011;53098;47.658;8.578;2023-09-18T13:53:22;2.22;;;0.93;;
66298;SDS011;53098;47.658;8.578;2023-09-18T13:55:48;5.45;;;0.98;;
66298;SDS011;53098;47.658;8.578;2023-09-18T13:58:13;8.90;;;1.30;;
66298;SDS011;53098;47.658;8.578;2023-09-18T14:00:39;3.10;;;0.80;;
66298;SDS011;53098;47.658;8.578;2023-09-18T14:03:04;3.40;;;1.42;;
66298;SDS011;53098;47.658;8.578;2023-09-18T14:05:30;3.90;;;1.10;;
66298;SDS011;53098;47.658;8.578;2023-09-18T14:07:55;5.55;;;1.00;;
66298;SDS011;53098;47.658;8.578;2023-09-18T14:10:21;6.05;;;1.35;;
66298;SDS011;53098;47.658;8.578;2023-09-18T14:12:46;3.70;;;1.02;;
66298;SDS011;53098;47.658;8.578;2023-09-18T14:15:12;3.97;;;1.10;;
66298;SDS011;53098;47.658;8.578;2023-09-18T14:17:38;5.85;;;1.50;;
66298;SDS011;53098;47.658;8.578;2023-09-18T14:20:04;2.38;;;1.02;;
66298;SDS011;53098;47.658;8.578;2023-09-18T14:22:30;4.88;;;1.35;;
66298;SDS011;53098;47.658;8.578;2023-09-18T14:24:56;4.50;;;1.27;;
66298;SDS011;53098;47.658;8.578;2023-09-18T14:27:21;4.03;;;1.15;;
66298;SDS011;53098;47.658;8.578;2023-09-18T14:29:47;3.65;;;1.10;;
66298;SDS011;53098;47.658;8.578;2023-09-18T14:32:12;4.80;;;1.15;;
66298;SDS011;53098;47.658;8.578;2023-09-18T14:34:38;5.22;;;1.25;;
66298;SDS011;53098;47.658;8.578;2023-09-18T14:37:03;4.30;;;1.20;;
66298;SDS011;53098;47.658;8.578;2023-09-18T14:39:32;4.55;;;1.20;;
66298;SDS011;53098;47.658;8.578;2023-09-18T14:41:58;3.45;;;0.98;;
66298;SDS011;53098;47.658;8.578;2023-09-18T14:44:23;4.47;;;0.77;;
66298;SDS011;53098;47.658;8.578;2023-09-18T14:46:49;3.60;;;1.20;;
66298;SDS011;53098;47.658;8.578;2023-09-18T14:49:14;2.72;;;1.30;;
66298;SDS011;53098;47.658;8.578;2023-09-18T14:51:40;3.05;;;1.25;;
66298;SDS011;53098;47.658;8.578;2023-09-18T14:54:05;6.65;;;1.50;;
66298;SDS011;53098;47.658;8.578;2023-09-18T14:56:31;3.58;;;1.00;;
66298;SDS011;53098;47.658;8.578;2023-09-18T14:58:57;4.00;;;1.15;;
66298;SDS011;53098;47.658;8.578;2023-09-18T15:01:23;3.88;;;1.30;;
66298;SDS011;53098;47.658;8.578;2023-09-18T15:03:49;4.72;;;1.55;;
66298;SDS011;53098;47.658;8.578;2023-09-18T15:06:16;2.92;;;1.17;;
66298;SDS011;53098;47.658;8.578;2023-09-18T15:08:42;4.60;;;1.20;;
66298;SDS011;53098;47.658;8.578;2023-09-18T15:11:09;4.93;;;1.35;;